createdAt,value
2023-04-05T00:02:19.816Z,96905.69
2023-04-05T00:05:10.078Z,96915.50
2023-04-05T00:08:04.172Z,96907.38
2023-04-05T00:10:54.752Z,96900.53
2023-04-05T00:13:44.762Z,96919.44
2023-04-05T00:16:43.912Z,96902.63
2023-04-05T00:19:39.677Z,96903.28
2023-04-05T00:22:33.722Z,96912.13
2023-04-05T00:25:25.542Z,96879.34
2023-04-05T00:28:23.990Z,96896.91
2023-04-05T00:31:12.884Z,96901.81
2023-04-05T00:34:04.407Z,96878.00
2023-04-05T00:36:53.473Z,96891.31
2023-04-05T00:39:42.710Z,96903.28
2023-04-05T00:42:32.228Z,96903.28
2023-04-05T00:45:25.086Z,96898.63
2023-04-05T00:48:14.456Z,96901.13
2023-04-05T00:51:05.026Z,96907.97
2023-04-05T00:53:55.072Z,96885.16
2023-04-05T00:56:46.085Z,96904.28
2023-04-05T00:59:34.969Z,96896.47
2023-04-05T01:02:34.368Z,96891.75
2023-04-05T01:05:34.804Z,96888.66
2023-04-05T01:08:35.641Z,96887.00
2023-04-05T01:11:30.330Z,96892.94
2023-04-05T01:14:19.869Z,96883.09
2023-04-05T01:17:11.220Z,96874.88
2023-04-05T01:20:11.153Z,96881.25
2023-04-05T01:23:19.247Z,96875.06
2023-04-05T01:26:40.668Z,96863.88
2023-04-05T01:29:51.314Z,96864.44
2023-04-05T01:32:50.482Z,96871.50
2023-04-05T01:35:45.289Z,96863.75
2023-04-05T01:38:59.820Z,96859.63
2023-04-05T01:41:52.119Z,96858.97
2023-04-05T01:45:10.534Z,96856.75
2023-04-05T01:48:13.939Z,96856.94
2023-04-05T01:51:18.662Z,96844.94
2023-04-05T01:54:12.518Z,96850.75
2023-04-05T01:57:17.733Z,96849.44
2023-04-05T02:00:19.343Z,96820.16
2023-04-05T02:04:14.129Z,96841.59
2023-04-05T02:07:44.425Z,96847.31
2023-04-05T02:10:39.232Z,96847.00
2023-04-05T02:13:48.543Z,96841.53
2023-04-05T02:16:52.603Z,96828.69
2023-04-05T02:20:04.971Z,96838.56
2023-04-05T02:26:13.463Z,96806.78
2023-04-05T02:29:02.095Z,96819.09
2023-04-05T02:31:52.567Z,96831.63
2023-04-05T02:34:42.958Z,96831.78
2023-04-05T02:37:32.410Z,96826.97
2023-04-05T02:40:21.923Z,96820.47
2023-04-05T02:43:11.090Z,96829.47
2023-04-05T02:46:00.726Z,96822.13
2023-04-05T02:48:51.157Z,96825.81
2023-04-05T02:51:41.356Z,96817.28
2023-04-05T02:54:31.707Z,96820.47
2023-04-05T02:57:24.371Z,96819.00
2023-04-05T03:00:23.945Z,96817.16
2023-04-05T03:03:14.784Z,96819.72
2023-04-05T03:06:10.737Z,96817.72
2023-04-05T03:09:09.157Z,96819.09
2023-04-05T03:11:58.832Z,96818.91
2023-04-05T03:14:48.636Z,96814.22
2023-04-05T03:17:44.681Z,96825.22
2023-04-05T03:20:40.166Z,96821.91
2023-04-05T03:23:35.281Z,96817.56
2023-04-05T03:26:25.127Z,96815.06
2023-04-05T03:29:16.107Z,96814.78
2023-04-05T03:32:05.336Z,96817.44
2023-04-05T03:34:54.734Z,96818.59
2023-04-05T03:37:44.626Z,96806.63
2023-04-05T03:40:36.070Z,96809.13
2023-04-05T03:43:24.692Z,96820.63
2023-04-05T03:46:14.322Z,96816.63
2023-04-05T03:49:03.855Z,96809.47
2023-04-05T03:51:53.269Z,96821.63
2023-04-05T03:54:41.862Z,96816.63
2023-04-05T03:57:33.200Z,96821.00
2023-04-05T04:00:29.719Z,96821.00
2023-04-05T04:03:45.100Z,96819.88
2023-04-05T04:06:34.445Z,96815.88
2023-04-05T04:09:24.047Z,96814.53
2023-04-05T04:12:13.396Z,96815.38
2023-04-05T04:15:13.204Z,96820.06
2023-04-05T04:18:31.765Z,96815.41
2023-04-05T04:21:39.977Z,96808.09
2023-04-05T04:24:50.150Z,96817.97
2023-04-05T04:28:06.680Z,96812.47
2023-04-05T04:31:13.592Z,96811.66
2023-04-05T04:34:26.328Z,96809.81
2023-04-05T04:37:38.061Z,96802.31
2023-04-05T04:40:47.736Z,96814.16
2023-04-05T04:43:45.855Z,96808.31
2023-04-05T04:46:57.466Z,96799.84
2023-04-05T04:50:00.751Z,96807.34
2023-04-05T04:52:51.025Z,96794.34
2023-04-05T04:55:42.515Z,96796.19
2023-04-05T04:58:31.220Z,96784.84
2023-04-05T05:01:26.644Z,96797.34
2023-04-05T05:04:17.230Z,96794.53
2023-04-05T05:07:06.924Z,96799.53
2023-04-05T05:09:57.751Z,96810.22
2023-04-05T05:12:46.771Z,96803.03
2023-04-05T05:15:38.058Z,96809.38
2023-04-05T05:18:27.172Z,96803.88
2023-04-05T05:21:17.596Z,96788.56
2023-04-05T05:24:14.768Z,96806.88
2023-04-05T05:27:03.452Z,96798.50
2023-04-05T05:29:52.083Z,96810.53
2023-04-05T05:32:42.592Z,96797.19
2023-04-05T05:35:31.294Z,96812.50
2023-04-05T05:38:24.082Z,96810.50
2023-04-05T05:41:13.120Z,96823.16
2023-04-05T05:44:02.916Z,96808.00
2023-04-05T05:46:51.557Z,96811.31
2023-04-05T05:49:40.808Z,96813.63
2023-04-05T05:52:29.465Z,96815.81
2023-04-05T05:55:21.099Z,96820.97
2023-04-05T05:58:09.761Z,96825.47
2023-04-05T06:01:00.158Z,96812.31
2023-04-05T06:03:48.891Z,96828.06
2023-04-05T06:06:39.843Z,96838.44
2023-04-05T06:09:28.909Z,96830.47
2023-04-05T06:12:19.308Z,96829.63
2023-04-05T06:15:09.511Z,96831.78
2023-04-05T06:17:58.205Z,96806.13
2023-04-05T06:20:47.553Z,96830.06
2023-04-05T06:23:36.679Z,96827.41
2023-04-05T06:26:27.743Z,96832.53
2023-04-05T06:29:18.084Z,96829.00
2023-04-05T06:32:07.319Z,96829.50
2023-04-05T06:34:56.562Z,96825.81
2023-04-05T06:37:45.128Z,96832.34
2023-04-05T06:40:34.293Z,96832.00
2023-04-05T06:43:22.888Z,96831.50
2023-04-05T06:46:14.543Z,96838.94
2023-04-05T06:49:04.098Z,96833.41
2023-04-05T06:51:53.354Z,96837.56
2023-04-05T06:54:42.017Z,96840.25
2023-04-05T06:57:31.080Z,96842.56
2023-04-05T07:00:21.084Z,96840.16
2023-04-05T07:03:11.573Z,96841.09
2023-04-05T07:06:01.379Z,96834.22
2023-04-05T07:08:51.377Z,96838.41
2023-04-05T07:11:40.090Z,96843.69
2023-04-05T07:14:30.753Z,96833.41
2023-04-05T07:17:19.776Z,96841.53
2023-04-05T07:20:10.863Z,96814.69
2023-04-05T07:23:00.162Z,96834.63
2023-04-05T07:25:48.846Z,96840.41
2023-04-05T07:28:38.952Z,96838.66
2023-04-05T07:31:27.601Z,96838.22
2023-04-05T07:34:17.054Z,96846.63
2023-04-05T07:37:07.753Z,96849.59
2023-04-05T07:39:56.392Z,96823.75
2023-04-05T07:42:45.049Z,96840.19
2023-04-05T07:45:34.541Z,96839.06
2023-04-05T07:48:23.185Z,96840.81
2023-04-05T07:51:13.173Z,96842.75
2023-04-05T07:54:04.074Z,96850.69
2023-04-05T07:56:55.340Z,96844.25
2023-04-05T07:59:44.011Z,96844.41
2023-04-05T08:02:33.502Z,96840.81
2023-04-05T08:05:22.441Z,96841.88
2023-04-05T08:08:11.899Z,96838.72
2023-04-05T08:11:03.978Z,96830.81
2023-04-05T08:13:54.056Z,96829.41
2023-04-05T08:16:44.421Z,96834.00
2023-04-05T08:19:33.118Z,96827.47
2023-04-05T08:22:22.991Z,96829.41
2023-04-05T08:25:11.710Z,96821.06
2023-04-05T08:28:01.800Z,96786.78
2023-04-05T08:30:55.460Z,96815.44
2023-04-05T08:33:44.105Z,96825.25
2023-04-05T08:36:33.529Z,96834.97
2023-04-05T08:39:22.233Z,96820.59
2023-04-05T08:42:18.222Z,96815.81
2023-04-05T08:45:11.158Z,96824.63
2023-04-05T08:48:00.463Z,96837.91
2023-04-05T08:50:52.743Z,96825.34
2023-04-05T08:53:42.271Z,96829.75
2023-04-05T08:56:33.540Z,96824.44
2023-04-05T08:59:23.852Z,96825.25
2023-04-05T09:02:18.956Z,96830.44
2023-04-05T09:05:11.748Z,96827.31
2023-04-05T09:08:01.754Z,96835.59
2023-04-05T09:10:52.388Z,96831.84
2023-04-05T09:13:43.429Z,96807.78
2023-04-05T09:16:33.817Z,96834.84
2023-04-05T09:19:24.072Z,96829.22
2023-04-05T09:22:14.614Z,96821.66
2023-04-05T09:25:03.543Z,96824.50
2023-04-05T09:27:57.737Z,96828.81
2023-04-05T09:30:47.761Z,96822.88
2023-04-05T09:33:37.708Z,96828.88
2023-04-05T09:36:28.411Z,96828.81
2023-04-05T09:39:21.925Z,96826.59
2023-04-05T09:42:13.152Z,96826.03
2023-04-05T09:45:06.053Z,96827.91
2023-04-05T09:48:15.104Z,96824.16
2023-04-05T09:51:12.826Z,96834.31
2023-04-05T09:54:05.556Z,96829.91
2023-04-05T09:56:56.897Z,96827.50
2023-04-05T09:59:46.428Z,96830.13
2023-04-05T10:02:39.893Z,96815.38
2023-04-05T10:05:30.688Z,96831.56
2023-04-05T10:08:20.107Z,96834.59
2023-04-05T10:11:13.513Z,96825.66
2023-04-05T10:14:04.604Z,96821.03
2023-04-05T10:17:05.651Z,96819.69
2023-04-05T10:20:05.256Z,96814.44
2023-04-05T10:23:10.879Z,96822.25
2023-04-05T10:26:05.973Z,96818.41
2023-04-05T10:29:10.168Z,96816.13
2023-04-05T10:32:07.005Z,96804.59
2023-04-05T10:35:01.648Z,96810.16
2023-04-05T10:37:59.989Z,96800.16
2023-04-05T10:40:50.681Z,96806.06
2023-04-05T10:43:41.052Z,96804.72
2023-04-05T10:46:32.594Z,96795.03
2023-04-05T10:49:24.616Z,96799.72
2023-04-05T10:52:13.937Z,96794.53
2023-04-05T10:55:05.008Z,96803.25
2023-04-05T10:57:56.079Z,96799.78
2023-04-05T11:00:46.550Z,96803.75
2023-04-05T11:03:54.412Z,96801.84
2023-04-05T11:06:48.934Z,96797.16
2023-04-05T11:09:39.923Z,96799.47
2023-04-05T11:13:02.969Z,96793.91
2023-04-05T11:16:09.518Z,96791.16
2023-04-05T11:18:59.948Z,96786.84
2023-04-05T11:21:48.699Z,96782.81
2023-04-05T11:24:53.021Z,96777.47
2023-04-05T11:28:02.028Z,96780.13
2023-04-05T11:30:53.089Z,96790.50
2023-04-05T11:34:01.051Z,96780.22
2023-04-05T11:36:50.592Z,96778.50
2023-04-05T11:39:40.298Z,96782.88
2023-04-05T11:42:28.987Z,96782.09
2023-04-05T11:45:21.056Z,96778.41
2023-04-05T11:48:11.070Z,96779.09
2023-04-05T11:51:02.097Z,96770.41
2023-04-05T11:53:50.800Z,96774.50
2023-04-05T11:56:39.888Z,96775.03
2023-04-05T11:59:37.309Z,96772.09
2023-04-05T12:02:26.578Z,96766.38
2023-04-05T12:05:15.973Z,96766.94
2023-04-05T12:08:06.666Z,96758.47
2023-04-05T12:10:56.843Z,96762.03
2023-04-05T12:13:47.586Z,96758.00
2023-04-05T12:16:36.243Z,96769.44
2023-04-05T12:19:31.455Z,96767.78
2023-04-05T12:22:20.164Z,96759.00
2023-04-05T12:25:11.643Z,96755.47
2023-04-05T12:28:05.857Z,96754.28
2023-04-05T12:30:57.630Z,96747.59
2023-04-05T12:33:47.043Z,96757.16
2023-04-05T12:36:36.346Z,96754.16
2023-04-05T12:39:30.061Z,96752.78
2023-04-05T12:42:20.539Z,96742.03
2023-04-05T12:45:12.972Z,96742.22
2023-04-05T12:48:01.808Z,96743.72
2023-04-05T12:50:54.016Z,96737.94
2023-04-05T12:53:46.948Z,96732.47
2023-04-05T12:56:35.737Z,96734.78
2023-04-05T12:59:25.857Z,96730.97
2023-04-05T13:02:15.687Z,96732.56
2023-04-05T13:05:04.882Z,96730.44
2023-04-05T13:07:55.325Z,96727.56
2023-04-05T13:10:43.948Z,96725.34
2023-04-05T13:13:35.420Z,96728.53
2023-04-05T13:16:25.425Z,96724.16
2023-04-05T13:19:15.241Z,96711.31
2023-04-05T13:22:03.899Z,96712.53
2023-04-05T13:24:53.963Z,96712.38
2023-04-05T13:27:43.286Z,96711.47
2023-04-05T13:30:31.942Z,96712.59
2023-04-05T13:33:22.564Z,96703.88
2023-04-05T13:36:12.482Z,96707.69
2023-04-05T13:39:01.912Z,96701.88
2023-04-05T13:41:50.898Z,96714.97
2023-04-05T13:44:39.865Z,96702.44
2023-04-05T13:47:28.569Z,96704.59
2023-04-05T13:50:20.484Z,96702.31
2023-04-05T13:53:09.630Z,96700.28
2023-04-05T13:55:58.885Z,96696.97
2023-04-05T13:58:47.576Z,96692.34
2023-04-05T14:01:36.902Z,96679.50
2023-04-05T14:04:25.723Z,96687.66
2023-04-05T14:07:16.434Z,96682.03
2023-04-05T14:10:06.163Z,96670.50
2023-04-05T14:12:55.989Z,96679.72
2023-04-05T14:15:44.689Z,96685.13
2023-04-05T14:18:33.300Z,96684.03
2023-04-05T14:21:22.882Z,96678.25
2023-04-05T14:24:12.842Z,96680.25
2023-04-05T14:27:02.440Z,96684.38
2023-04-05T14:29:52.513Z,96681.34
2023-04-05T14:32:42.506Z,96677.81
2023-04-05T14:35:31.741Z,96687.25
2023-04-05T14:38:20.639Z,96671.78
2023-04-05T14:41:11.522Z,96676.16
2023-04-05T14:44:01.607Z,96660.72
2023-04-05T14:46:52.030Z,96657.31
2023-04-05T14:49:40.717Z,96661.69
2023-04-05T14:52:29.691Z,96663.16
2023-04-05T14:55:18.389Z,96665.38
2023-04-05T14:57:49.436Z,96665.09
2023-04-05T15:00:18.786Z,96666.53
2023-04-05T15:03:07.815Z,96661.25
2023-04-05T15:05:56.609Z,96672.38
2023-04-05T15:08:45.240Z,96662.97
2023-04-05T15:11:35.739Z,96669.16
2023-04-05T15:14:32.148Z,96668.13
2023-04-05T15:17:21.870Z,96662.03
2023-04-05T15:20:11.869Z,96662.44
2023-04-05T15:23:01.040Z,96659.91
2023-04-05T15:25:49.619Z,96654.31
2023-04-05T15:28:39.367Z,96650.94
2023-04-05T15:31:29.863Z,96653.75
2023-04-05T15:34:18.980Z,96636.56
2023-04-05T15:37:07.596Z,96649.66
2023-04-05T15:40:03.704Z,96643.09
2023-04-05T15:42:55.906Z,96631.38
2023-04-05T15:45:44.946Z,96650.56
2023-04-05T15:48:34.928Z,96648.72
2023-04-05T15:51:23.719Z,96646.28
2023-04-05T15:54:18.574Z,96644.19
2023-04-05T15:57:07.330Z,96639.53
2023-04-05T15:59:56.851Z,96649.38
2023-04-05T16:02:46.466Z,96645.78
2023-04-05T16:05:37.507Z,96646.91
2023-04-05T16:08:26.199Z,96653.75
2023-04-05T16:11:15.810Z,96645.03
2023-04-05T16:14:05.299Z,96651.88
2023-04-05T16:16:54.624Z,96646.97
2023-04-05T16:19:43.801Z,96651.06
2023-04-05T16:22:34.257Z,96651.09
2023-04-05T16:25:23.718Z,96646.19
2023-04-05T16:28:14.170Z,96637.16
2023-04-05T16:31:03.065Z,96641.50
2023-04-05T16:33:52.682Z,96645.03
2023-04-05T16:36:41.811Z,96643.53
2023-04-05T16:39:31.776Z,96644.09
2023-04-05T16:42:20.420Z,96644.38
2023-04-05T16:45:11.196Z,96646.66
2023-04-05T16:47:59.863Z,96642.63
2023-04-05T16:50:49.203Z,96638.97
2023-04-05T16:53:37.796Z,96633.31
2023-04-05T16:56:28.419Z,96621.03
2023-04-05T16:59:17.296Z,96632.88
2023-04-05T17:02:06.556Z,96618.16
2023-04-05T17:04:55.327Z,96635.66
2023-04-05T17:07:43.980Z,96632.44
2023-04-05T17:10:33.116Z,96641.91
2023-04-05T17:13:23.712Z,96640.22
2023-04-05T17:16:12.823Z,96642.53
2023-04-05T17:19:02.482Z,96639.63
2023-04-05T17:21:51.485Z,96638.38
2023-04-05T17:24:41.767Z,96635.22
2023-04-05T17:27:30.422Z,96641.25
2023-04-05T17:30:21.137Z,96645.59
2023-04-05T17:33:09.893Z,96641.50
2023-04-05T17:36:00.722Z,96642.56
2023-04-05T17:38:49.398Z,96637.25
2023-04-05T17:41:38.451Z,96646.75
2023-04-05T17:44:27.267Z,96635.69
2023-04-05T17:47:17.715Z,96641.59
2023-04-05T17:50:07.299Z,96654.91
2023-04-05T17:52:56.914Z,96645.25
2023-04-05T17:55:45.692Z,96649.50
2023-04-05T17:58:35.959Z,96644.31
2023-04-05T18:01:24.597Z,96650.19
2023-04-05T18:04:15.466Z,96649.66
2023-04-05T18:07:04.219Z,96649.00
2023-04-05T18:09:53.246Z,96661.34
2023-04-05T18:12:41.880Z,96651.09
2023-04-05T18:15:31.675Z,96658.69
2023-04-05T18:18:20.342Z,96659.06
2023-04-05T18:21:11.004Z,96668.09
2023-04-05T18:23:59.881Z,96670.06
2023-04-05T18:26:48.488Z,96669.97
2023-04-05T18:29:38.898Z,96677.84
2023-04-05T18:32:27.726Z,96676.72
2023-04-05T18:35:16.498Z,96684.53
2023-04-05T18:38:11.431Z,96653.28
2023-04-05T18:41:02.008Z,96686.63
2023-04-05T18:43:53.963Z,96686.22
2023-04-05T18:46:44.161Z,96690.44
2023-04-05T18:49:34.052Z,96688.72
2023-04-05T18:52:25.889Z,96693.41
2023-04-05T18:55:16.396Z,96690.38
2023-04-05T18:58:05.109Z,96695.16
2023-04-05T19:00:53.838Z,96676.00
2023-04-05T19:03:43.369Z,96702.38
2023-04-05T19:06:32.984Z,96702.38
2023-04-05T19:09:22.124Z,96709.88
2023-04-05T19:12:12.937Z,96703.03
2023-04-05T19:15:01.635Z,96717.25
2023-04-05T19:17:51.875Z,96699.66
2023-04-05T19:20:40.729Z,96709.41
2023-04-05T19:23:30.427Z,96711.28
2023-04-05T19:26:22.260Z,96707.63
2023-04-05T19:29:12.589Z,96712.66
2023-04-05T19:32:02.069Z,96709.34
2023-04-05T19:34:50.964Z,96717.03
2023-04-05T19:37:41.715Z,96708.38
2023-04-05T19:40:30.783Z,96717.44
2023-04-05T19:43:20.354Z,96712.25
2023-04-05T19:46:10.815Z,96715.78
2023-04-05T19:49:07.583Z,96714.59
2023-04-05T19:51:56.362Z,96727.06
2023-04-05T19:54:45.358Z,96722.09
2023-04-05T19:57:41.451Z,96720.66
2023-04-05T20:00:32.527Z,96713.03
2023-04-05T20:03:33.098Z,96705.38
2023-04-05T20:06:21.779Z,96716.97
2023-04-05T20:09:18.474Z,96708.28
2023-04-05T20:12:08.195Z,96706.84
2023-04-05T20:14:56.830Z,96720.72
2023-04-05T20:17:48.928Z,96715.13
2023-04-05T20:20:39.246Z,96715.94
2023-04-05T20:23:31.504Z,96709.75
2023-04-05T20:26:23.292Z,96712.03
2023-04-05T20:29:16.632Z,96704.78
2023-04-05T20:32:07.677Z,96708.50
2023-04-05T20:34:56.511Z,96708.50
2023-04-05T20:37:49.738Z,96703.31
2023-04-05T20:40:38.457Z,96700.84
2023-04-05T20:43:28.545Z,96699.59
2023-04-05T20:46:18.702Z,96700.41
2023-04-05T20:49:08.594Z,96698.09
2023-04-05T20:51:58.368Z,96695.00
2023-04-05T20:54:50.290Z,96709.06
2023-04-05T20:57:38.989Z,96693.06
2023-04-05T21:00:27.912Z,96712.94
2023-04-05T21:03:16.920Z,96697.38
2023-04-05T21:06:08.357Z,96699.44
2023-04-05T21:08:57.601Z,96705.00
2023-04-05T21:11:47.647Z,96709.94
2023-04-05T21:14:38.214Z,96708.69
2023-04-05T21:17:28.052Z,96699.16
2023-04-05T21:20:16.947Z,96711.56
2023-04-05T21:23:08.463Z,96705.91
2023-04-05T21:25:58.627Z,96705.09
2023-04-05T21:28:48.704Z,96714.00
2023-04-05T21:31:41.121Z,96716.91
2023-04-05T21:34:29.866Z,96709.63
2023-04-05T21:37:19.096Z,96711.47
2023-04-05T21:40:12.734Z,96712.88
2023-04-05T21:43:05.191Z,96702.94
2023-04-05T21:46:00.356Z,96705.19
2023-04-05T21:48:51.461Z,96702.31
2023-04-05T21:51:41.201Z,96700.03
2023-04-05T21:54:31.200Z,96706.38
2023-04-05T21:57:22.619Z,96706.19
2023-04-05T22:00:15.858Z,96701.28
2023-04-05T22:03:11.472Z,96702.53
2023-04-05T22:06:02.190Z,96714.56
2023-04-05T22:08:57.915Z,96708.69
2023-04-05T22:11:46.678Z,96717.13
2023-04-05T22:14:38.032Z,96705.38
2023-04-05T22:17:28.744Z,96707.03
2023-04-05T22:20:21.532Z,96709.72
2023-04-05T22:23:14.216Z,96708.69
2023-04-05T22:26:08.520Z,96699.13
2023-04-05T22:28:58.213Z,96702.59
2023-04-05T22:31:46.983Z,96702.75
2023-04-05T22:34:39.511Z,96710.59
2023-04-05T22:37:38.311Z,96706.00
2023-04-05T22:40:28.664Z,96713.34
2023-04-05T22:43:26.979Z,96705.84
2023-04-05T22:46:15.952Z,96712.66
2023-04-05T22:49:05.143Z,96707.25
2023-04-05T22:52:00.435Z,96705.94
2023-04-05T22:54:54.088Z,96700.19
2023-04-05T22:57:44.885Z,96702.28
2023-04-05T23:00:34.134Z,96704.97
2023-04-05T23:03:22.780Z,96706.38
2023-04-05T23:06:12.261Z,96715.03
2023-04-05T23:09:03.112Z,96697.69
2023-04-05T23:11:54.629Z,96659.47
2023-04-05T23:14:46.374Z,96709.59
2023-04-05T23:17:36.519Z,96713.78
2023-04-05T23:20:26.764Z,96710.00
2023-04-05T23:23:16.235Z,96702.97
2023-04-05T23:26:05.374Z,96705.03
2023-04-05T23:28:57.882Z,96711.44
2023-04-05T23:31:49.279Z,96703.31
2023-04-05T23:37:48.713Z,96696.09
2023-04-05T23:40:38.638Z,96677.75
2023-04-05T23:43:27.289Z,96698.56
2023-04-05T23:46:17.785Z,96694.81
2023-04-05T23:49:07.922Z,96695.13
2023-04-05T23:51:57.814Z,96682.28
2023-04-05T23:54:47.435Z,96691.78
2023-04-05T23:57:39.254Z,96687.84
